sensor_id;sensor_type;location;lat;lon;timestamp;P1;durP1;ratioP1;P2;durP2;ratioP2
68089;SDS011;54880;50.986;6.990;2023-12-28T00:02:15;5.27;;;1.53;;
68089;SDS011;54880;50.986;6.990;2023-12-28T00:04:40;6.57;;;1.70;;
68089;SDS011;54880;50.986;6.990;2023-12-28T00:07:06;6.10;;;1.90;;
68089;SDS011;54880;50.986;6.990;2023-12-28T00:09:31;6.30;;;2.00;;
68089;SDS011;54880;50.986;6.990;2023-12-28T00:11:58;6.77;;;1.80;;
68089;SDS011;54880;50.986;6.990;2023-12-28T00:14:23;7.00;;;2.08;;
68089;SDS011;54880;50.986;6.990;2023-12-28T00:16:49;5.28;;;1.75;;
68089;SDS011;54880;50.986;6.990;2023-12-28T00:19:14;5.93;;;2.03;;
68089;SDS011;54880;50.986;6.990;2023-12-28T00:21:39;8.73;;;1.80;;
68089;SDS011;54880;50.986;6.990;2023-12-28T00:24:05;6.80;;;1.70;;
68089;SDS011;54880;50.986;6.990;2023-12-28T00:26:30;5.13;;;1.80;;
68089;SDS011;54880;50.986;6.990;2023-12-28T00:29:02;5.32;;;1.52;;
68089;SDS011;54880;50.986;6.990;2023-12-28T00:31:28;6.10;;;1.90;;
68089;SDS011;54880;50.986;6.990;2023-12-28T00:33:53;6.90;;;1.80;;
68089;SDS011;54880;50.986;6.990;2023-12-28T00:36:18;9.07;;;2.33;;
68089;SDS011;54880;50.986;6.990;2023-12-28T00:38:43;7.43;;;2.03;;
68089;SDS011;54880;50.986;6.990;2023-12-28T00:41:08;6.03;;;1.70;;
68089;SDS011;54880;50.986;6.990;2023-12-28T00:43:34;6.03;;;1.70;;
68089;SDS011;54880;50.986;6.990;2023-12-28T00:45:59;7.40;;;1.90;;
68089;SDS011;54880;50.986;6.990;2023-12-28T00:48:24;5.07;;;1.60;;
68089;SDS011;54880;50.986;6.990;2023-12-28T00:50:49;7.17;;;1.70;;
68089;SDS011;54880;50.986;6.990;2023-12-28T00:53:15;7.73;;;2.30;;
68089;SDS011;54880;50.986;6.990;2023-12-28T00:55:40;6.90;;;1.80;;
68089;SDS011;54880;50.986;6.990;2023-12-28T00:58:05;6.50;;;1.63;;
68089;SDS011;54880;50.986;6.990;2023-12-28T01:00:30;6.73;;;1.90;;
68089;SDS011;54880;50.986;6.990;2023-12-28T01:02:56;6.87;;;1.90;;
68089;SDS011;54880;50.986;6.990;2023-12-28T01:05:21;5.63;;;1.67;;
68089;SDS011;54880;50.986;6.990;2023-12-28T01:07:46;6.67;;;1.90;;
68089;SDS011;54880;50.986;6.990;2023-12-28T01:10:12;7.20;;;2.00;;
68089;SDS011;54880;50.986;6.990;2023-12-28T01:12:37;6.30;;;1.90;;
68089;SDS011;54880;50.986;6.990;2023-12-28T01:15:02;5.93;;;1.90;;
68089;SDS011;54880;50.986;6.990;2023-12-28T01:17:29;5.97;;;2.08;;
68089;SDS011;54880;50.986;6.990;2023-12-28T01:19:54;6.03;;;1.83;;
68089;SDS011;54880;50.986;6.990;2023-12-28T01:22:19;6.57;;;1.73;;
68089;SDS011;54880;50.986;6.990;2023-12-28T01:24:47;5.73;;;1.90;;
68089;SDS011;54880;50.986;6.990;2023-12-28T01:27:14;5.55;;;1.90;;
68089;SDS011;54880;50.986;6.990;2023-12-28T01:29:39;5.93;;;1.77;;
68089;SDS011;54880;50.986;6.990;2023-12-28T01:32:05;4.80;;;1.60;;
68089;SDS011;54880;50.986;6.990;2023-12-28T01:34:30;5.90;;;1.50;;
68089;SDS011;54880;50.986;6.990;2023-12-28T01:36:55;5.83;;;1.60;;
68089;SDS011;54880;50.986;6.990;2023-12-28T01:39:20;5.07;;;1.67;;
68089;SDS011;54880;50.986;6.990;2023-12-28T01:41:46;6.97;;;1.70;;
68089;SDS011;54880;50.986;6.990;2023-12-28T01:44:11;6.00;;;1.80;;
68089;SDS011;54880;50.986;6.990;2023-12-28T01:46:36;5.87;;;1.50;;
68089;SDS011;54880;50.986;6.990;2023-12-28T01:49:03;4.78;;;1.38;;
68089;SDS011;54880;50.986;6.990;2023-12-28T01:51:28;4.70;;;1.27;;
68089;SDS011;54880;50.986;6.990;2023-12-28T01:53:54;5.03;;;1.30;;
68089;SDS011;54880;50.986;6.990;2023-12-28T01:56:19;4.80;;;1.40;;
68089;SDS011;54880;50.986;6.990;2023-12-28T01:58:45;5.73;;;1.60;;
68089;SDS011;54880;50.986;6.990;2023-12-28T02:01:11;6.53;;;1.55;;
68089;SDS011;54880;50.986;6.990;2023-12-28T02:03:37;4.90;;;1.33;;
68089;SDS011;54880;50.986;6.990;2023-12-28T02:06:03;4.70;;;1.35;;
68089;SDS011;54880;50.986;6.990;2023-12-28T02:08:29;4.50;;;1.42;;
68089;SDS011;54880;50.986;6.990;2023-12-28T02:10:54;5.87;;;1.33;;
68089;SDS011;54880;50.986;6.990;2023-12-28T02:13:20;4.23;;;1.10;;
68089;SDS011;54880;50.986;6.990;2023-12-28T02:15:46;5.80;;;1.40;;
68089;SDS011;54880;50.986;6.990;2023-12-28T02:18:12;4.55;;;1.30;;
68089;SDS011;54880;50.986;6.990;2023-12-28T02:20:38;4.00;;;1.08;;
68089;SDS011;54880;50.986;6.990;2023-12-28T02:23:04;4.10;;;1.07;;
68089;SDS011;54880;50.986;6.990;2023-12-28T02:25:29;4.57;;;1.15;;
68089;SDS011;54880;50.986;6.990;2023-12-28T02:27:54;3.83;;;1.00;;
68089;SDS011;54880;50.986;6.990;2023-12-28T02:30:20;4.22;;;1.27;;
68089;SDS011;54880;50.986;6.990;2023-12-28T02:35:25;4.03;;;1.00;;
68089;SDS011;54880;50.986;6.990;2023-12-28T02:37:55;3.65;;;1.00;;
68089;SDS011;54880;50.986;6.990;2023-12-28T02:40:21;4.32;;;1.20;;
68089;SDS011;54880;50.986;6.990;2023-12-28T02:42:48;4.53;;;1.03;;
68089;SDS011;54880;50.986;6.990;2023-12-28T02:45:13;3.97;;;0.98;;
68089;SDS011;54880;50.986;6.990;2023-12-28T02:47:38;4.90;;;1.10;;
68089;SDS011;54880;50.986;6.990;2023-12-28T02:50:04;3.87;;;0.90;;
68089;SDS011;54880;50.986;6.990;2023-12-28T02:52:29;3.97;;;1.10;;
68089;SDS011;54880;50.986;6.990;2023-12-28T02:54:54;4.67;;;1.10;;
68089;SDS011;54880;50.986;6.990;2023-12-28T02:57:19;4.77;;;1.00;;
68089;SDS011;54880;50.986;6.990;2023-12-28T02:59:45;4.57;;;1.00;;
68089;SDS011;54880;50.986;6.990;2023-12-28T03:02:10;4.33;;;1.10;;
68089;SDS011;54880;50.986;6.990;2023-12-28T03:04:35;5.10;;;1.20;;
68089;SDS011;54880;50.986;6.990;2023-12-28T03:07:01;5.13;;;1.00;;
68089;SDS011;54880;50.986;6.990;2023-12-28T03:09:26;4.95;;;1.00;;
68089;SDS011;54880;50.986;6.990;2023-12-28T03:11:51;4.47;;;1.20;;
68089;SDS011;54880;50.986;6.990;2023-12-28T03:14:17;6.20;;;1.40;;
68089;SDS011;54880;50.986;6.990;2023-12-28T03:16:42;4.83;;;1.20;;
68089;SDS011;54880;50.986;6.990;2023-12-28T03:19:08;5.43;;;1.40;;
68089;SDS011;54880;50.986;6.990;2023-12-28T03:21:33;4.47;;;1.20;;
68089;SDS011;54880;50.986;6.990;2023-12-28T03:23:59;5.35;;;1.33;;
68089;SDS011;54880;50.986;6.990;2023-12-28T03:26:25;4.40;;;1.30;;
68089;SDS011;54880;50.986;6.990;2023-12-28T03:28:51;5.93;;;1.20;;
68089;SDS011;54880;50.986;6.990;2023-12-28T03:31:16;4.60;;;1.27;;
68089;SDS011;54880;50.986;6.990;2023-12-28T03:33:41;4.43;;;1.13;;
68089;SDS011;54880;50.986;6.990;2023-12-28T03:36:06;4.63;;;1.10;;
68089;SDS011;54880;50.986;6.990;2023-12-28T03:38:32;4.37;;;1.30;;
68089;SDS011;54880;50.986;6.990;2023-12-28T03:40:57;4.93;;;1.40;;
68089;SDS011;54880;50.986;6.990;2023-12-28T03:43:23;4.50;;;1.23;;
68089;SDS011;54880;50.986;6.990;2023-12-28T03:45:48;4.73;;;1.50;;
68089;SDS011;54880;50.986;6.990;2023-12-28T03:48:13;4.53;;;1.30;;
68089;SDS011;54880;50.986;6.990;2023-12-28T03:50:39;7.23;;;1.30;;
68089;SDS011;54880;50.986;6.990;2023-12-28T03:53:04;4.88;;;1.73;;
68089;SDS011;54880;50.986;6.990;2023-12-28T03:55:29;4.67;;;1.40;;
68089;SDS011;54880;50.986;6.990;2023-12-28T03:57:55;4.40;;;1.40;;
68089;SDS011;54880;50.986;6.990;2023-12-28T04:00:20;5.20;;;1.53;;
68089;SDS011;54880;50.986;6.990;2023-12-28T04:02:48;4.40;;;1.33;;
68089;SDS011;54880;50.986;6.990;2023-12-28T04:05:14;4.70;;;1.48;;
68089;SDS011;54880;50.986;6.990;2023-12-28T04:07:39;5.17;;;1.47;;
68089;SDS011;54880;50.986;6.990;2023-12-28T04:10:05;4.85;;;1.45;;
68089;SDS011;54880;50.986;6.990;2023-12-28T04:12:30;5.72;;;1.60;;
68089;SDS011;54880;50.986;6.990;2023-12-28T04:14:55;4.33;;;1.47;;
68089;SDS011;54880;50.986;6.990;2023-12-28T04:17:21;4.97;;;1.50;;
68089;SDS011;54880;50.986;6.990;2023-12-28T04:19:46;6.90;;;1.60;;
68089;SDS011;54880;50.986;6.990;2023-12-28T04:22:11;5.60;;;1.60;;
68089;SDS011;54880;50.986;6.990;2023-12-28T04:24:36;4.80;;;1.40;;
68089;SDS011;54880;50.986;6.990;2023-12-28T04:27:02;5.30;;;1.70;;
68089;SDS011;54880;50.986;6.990;2023-12-28T04:29:27;5.83;;;1.57;;
68089;SDS011;54880;50.986;6.990;2023-12-28T04:31:53;5.97;;;1.90;;
68089;SDS011;54880;50.986;6.990;2023-12-28T04:34:19;5.85;;;1.50;;
68089;SDS011;54880;50.986;6.990;2023-12-28T04:36:44;5.33;;;1.60;;
68089;SDS011;54880;50.986;6.990;2023-12-28T04:39:10;6.88;;;1.70;;
68089;SDS011;54880;50.986;6.990;2023-12-28T04:41:35;4.90;;;1.50;;
68089;SDS011;54880;50.986;6.990;2023-12-28T04:44:01;6.47;;;1.93;;
68089;SDS011;54880;50.986;6.990;2023-12-28T04:46:26;5.83;;;1.80;;
68089;SDS011;54880;50.986;6.990;2023-12-28T04:48:51;7.07;;;1.97;;
68089;SDS011;54880;50.986;6.990;2023-12-28T04:51:17;6.13;;;1.63;;
68089;SDS011;54880;50.986;6.990;2023-12-28T04:53:42;4.73;;;1.50;;
68089;SDS011;54880;50.986;6.990;2023-12-28T04:56:07;4.97;;;1.77;;
68089;SDS011;54880;50.986;6.990;2023-12-28T04:58:32;6.70;;;1.70;;
68089;SDS011;54880;50.986;6.990;2023-12-28T05:00:58;5.37;;;1.40;;
68089;SDS011;54880;50.986;6.990;2023-12-28T05:03:23;5.83;;;1.80;;
68089;SDS011;54880;50.986;6.990;2023-12-28T05:05:48;5.50;;;1.70;;
68089;SDS011;54880;50.986;6.990;2023-12-28T05:08:15;6.07;;;1.40;;
68089;SDS011;54880;50.986;6.990;2023-12-28T05:10:40;7.43;;;2.07;;
68089;SDS011;54880;50.986;6.990;2023-12-28T05:13:05;5.70;;;1.70;;
68089;SDS011;54880;50.986;6.990;2023-12-28T05:15:31;7.15;;;1.80;;
68089;SDS011;54880;50.986;6.990;2023-12-28T05:17:56;8.33;;;1.93;;
68089;SDS011;54880;50.986;6.990;2023-12-28T05:20:22;8.13;;;1.93;;
68089;SDS011;54880;50.986;6.990;2023-12-28T05:22:47;6.17;;;1.70;;
68089;SDS011;54880;50.986;6.990;2023-12-28T05:25:12;6.13;;;1.70;;
68089;SDS011;54880;50.986;6.990;2023-12-28T05:27:37;4.97;;;1.60;;
68089;SDS011;54880;50.986;6.990;2023-12-28T05:30:03;7.13;;;1.97;;
68089;SDS011;54880;50.986;6.990;2023-12-28T05:32:28;5.60;;;1.73;;
68089;SDS011;54880;50.986;6.990;2023-12-28T05:34:54;6.30;;;1.70;;
68089;SDS011;54880;50.986;6.990;2023-12-28T05:37:19;5.85;;;1.70;;
68089;SDS011;54880;50.986;6.990;2023-12-28T05:39:44;6.07;;;1.60;;
68089;SDS011;54880;50.986;6.990;2023-12-28T05:42:09;5.15;;;1.75;;
68089;SDS011;54880;50.986;6.990;2023-12-28T05:44:35;5.70;;;1.73;;
68089;SDS011;54880;50.986;6.990;2023-12-28T05:47:00;6.57;;;1.87;;
68089;SDS011;54880;50.986;6.990;2023-12-28T05:49:25;8.15;;;1.70;;
68089;SDS011;54880;50.986;6.990;2023-12-28T05:51:50;7.10;;;1.90;;
68089;SDS011;54880;50.986;6.990;2023-12-28T05:54:15;6.97;;;2.07;;
68089;SDS011;54880;50.986;6.990;2023-12-28T05:56:41;6.35;;;2.10;;
68089;SDS011;54880;50.986;6.990;2023-12-28T05:59:06;6.63;;;1.90;;
68089;SDS011;54880;50.986;6.990;2023-12-28T06:01:31;6.97;;;1.80;;
68089;SDS011;54880;50.986;6.990;2023-12-28T06:03:57;7.40;;;1.97;;
68089;SDS011;54880;50.986;6.990;2023-12-28T06:06:22;7.67;;;1.90;;
68089;SDS011;54880;50.986;6.990;2023-12-28T06:08:47;6.93;;;1.80;;
68089;SDS011;54880;50.986;6.990;2023-12-28T06:11:12;5.70;;;1.67;;
68089;SDS011;54880;50.986;6.990;2023-12-28T06:13:38;6.57;;;1.80;;
68089;SDS011;54880;50.986;6.990;2023-12-28T06:16:03;7.23;;;1.80;;
68089;SDS011;54880;50.986;6.990;2023-12-28T06:18:28;8.80;;;2.10;;
68089;SDS011;54880;50.986;6.990;2023-12-28T06:20:54;6.00;;;1.73;;
68089;SDS011;54880;50.986;6.990;2023-12-28T06:23:19;4.93;;;1.60;;
68089;SDS011;54880;50.986;6.990;2023-12-28T06:25:44;6.77;;;1.63;;
68089;SDS011;54880;50.986;6.990;2023-12-28T06:28:10;5.70;;;1.77;;
68089;SDS011;54880;50.986;6.990;2023-12-28T06:30:35;6.27;;;2.00;;
68089;SDS011;54880;50.986;6.990;2023-12-28T06:33:00;7.97;;;2.13;;
68089;SDS011;54880;50.986;6.990;2023-12-28T06:35:25;7.73;;;1.90;;
68089;SDS011;54880;50.986;6.990;2023-12-28T06:37:51;7.77;;;1.77;;
68089;SDS011;54880;50.986;6.990;2023-12-28T06:40:16;6.50;;;1.70;;
68089;SDS011;54880;50.986;6.990;2023-12-28T06:42:41;12.43;;;2.87;;
68089;SDS011;54880;50.986;6.990;2023-12-28T06:45:08;9.93;;;3.42;;
68089;SDS011;54880;50.986;6.990;2023-12-28T06:47:34;6.38;;;2.05;;
68089;SDS011;54880;50.986;6.990;2023-12-28T06:49:59;6.13;;;1.60;;
68089;SDS011;54880;50.986;6.990;2023-12-28T06:52:24;8.23;;;2.17;;
68089;SDS011;54880;50.986;6.990;2023-12-28T06:54:50;7.20;;;2.03;;
68089;SDS011;54880;50.986;6.990;2023-12-28T06:57:16;6.90;;;2.25;;
68089;SDS011;54880;50.986;6.990;2023-12-28T06:59:41;7.20;;;2.07;;
68089;SDS011;54880;50.986;6.990;2023-12-28T07:02:06;6.13;;;1.80;;
68089;SDS011;54880;50.986;6.990;2023-12-28T07:04:31;7.33;;;1.90;;
68089;SDS011;54880;50.986;6.990;2023-12-28T07:06:58;6.43;;;2.07;;
68089;SDS011;54880;50.986;6.990;2023-12-28T07:09:23;6.53;;;1.67;;
68089;SDS011;54880;50.986;6.990;2023-12-28T07:11:48;5.95;;;1.90;;
68089;SDS011;54880;50.986;6.990;2023-12-28T07:14:14;7.28;;;1.80;;
68089;SDS011;54880;50.986;6.990;2023-12-28T07:16:39;6.20;;;1.73;;
68089;SDS011;54880;50.986;6.990;2023-12-28T07:19:04;7.85;;;2.03;;
68089;SDS011;54880;50.986;6.990;2023-12-28T07:21:29;5.63;;;1.70;;
68089;SDS011;54880;50.986;6.990;2023-12-28T07:23:55;6.40;;;1.77;;
68089;SDS011;54880;50.986;6.990;2023-12-28T07:26:20;7.30;;;1.80;;
68089;SDS011;54880;50.986;6.990;2023-12-28T07:28:45;7.17;;;1.70;;
68089;SDS011;54880;50.986;6.990;2023-12-28T07:31:22;10.97;;;2.23;;
68089;SDS011;54880;50.986;6.990;2023-12-28T07:33:47;6.50;;;1.75;;
68089;SDS011;54880;50.986;6.990;2023-12-28T07:36:12;8.50;;;1.57;;
68089;SDS011;54880;50.986;6.990;2023-12-28T07:38:38;5.32;;;1.70;;
68089;SDS011;54880;50.986;6.990;2023-12-28T07:41:04;7.23;;;1.90;;
68089;SDS011;54880;50.986;6.990;2023-12-28T07:43:29;5.37;;;2.03;;
68089;SDS011;54880;50.986;6.990;2023-12-28T07:45:54;6.97;;;2.03;;
68089;SDS011;54880;50.986;6.990;2023-12-28T07:48:20;7.40;;;1.85;;
68089;SDS011;54880;50.986;6.990;2023-12-28T07:50:45;6.60;;;1.90;;
68089;SDS011;54880;50.986;6.990;2023-12-28T07:53:10;8.15;;;2.10;;
68089;SDS011;54880;50.986;6.990;2023-12-28T07:55:35;5.55;;;1.90;;
68089;SDS011;54880;50.986;6.990;2023-12-28T07:58:01;6.43;;;1.85;;
68089;SDS011;54880;50.986;6.990;2023-12-28T08:00:26;6.43;;;1.60;;
68089;SDS011;54880;50.986;6.990;2023-12-28T08:02:51;6.30;;;1.60;;
68089;SDS011;54880;50.986;6.990;2023-12-28T08:05:16;5.97;;;1.70;;
68089;SDS011;54880;50.986;6.990;2023-12-28T08:07:42;7.90;;;2.00;;
68089;SDS011;54880;50.986;6.990;2023-12-28T08:10:07;5.47;;;1.50;;
68089;SDS011;54880;50.986;6.990;2023-12-28T08:12:32;6.27;;;1.77;;
68089;SDS011;54880;50.986;6.990;2023-12-28T08:14:58;8.00;;;1.70;;
68089;SDS011;54880;50.986;6.990;2023-12-28T08:17:24;6.77;;;1.80;;
68089;SDS011;54880;50.986;6.990;2023-12-28T08:19:49;6.15;;;1.58;;
68089;SDS011;54880;50.986;6.990;2023-12-28T08:22:14;7.90;;;1.85;;
68089;SDS011;54880;50.986;6.990;2023-12-28T08:24:40;5.78;;;1.80;;
68089;SDS011;54880;50.986;6.990;2023-12-28T08:27:05;9.27;;;1.60;;
68089;SDS011;54880;50.986;6.990;2023-12-28T08:29:30;5.00;;;1.45;;
68089;SDS011;54880;50.986;6.990;2023-12-28T08:31:55;8.20;;;1.70;;
68089;SDS011;54880;50.986;6.990;2023-12-28T08:34:21;8.98;;;1.52;;
68089;SDS011;54880;50.986;6.990;2023-12-28T08:36:46;7.70;;;1.50;;
68089;SDS011;54880;50.986;6.990;2023-12-28T08:39:11;6.40;;;1.70;;
68089;SDS011;54880;50.986;6.990;2023-12-28T08:41:36;6.73;;;1.60;;
68089;SDS011;54880;50.986;6.990;2023-12-28T08:44:02;7.03;;;1.60;;
68089;SDS011;54880;50.986;6.990;2023-12-28T08:46:27;8.57;;;1.47;;
68089;SDS011;54880;50.986;6.990;2023-12-28T08:48:53;10.93;;;1.53;;
68089;SDS011;54880;50.986;6.990;2023-12-28T08:51:19;8.53;;;1.90;;
68089;SDS011;54880;50.986;6.990;2023-12-28T08:53:44;8.00;;;1.63;;
68089;SDS011;54880;50.986;6.990;2023-12-28T08:56:16;8.10;;;1.42;;
68089;SDS011;54880;50.986;6.990;2023-12-28T08:58:41;7.03;;;1.73;;
68089;SDS011;54880;50.986;6.990;2023-12-28T09:01:06;7.00;;;1.60;;
68089;SDS011;54880;50.986;6.990;2023-12-28T09:03:32;8.63;;;1.40;;
68089;SDS011;54880;50.986;6.990;2023-12-28T09:05:57;7.72;;;1.63;;
68089;SDS011;54880;50.986;6.990;2023-12-28T09:08:22;5.97;;;1.47;;
68089;SDS011;54880;50.986;6.990;2023-12-28T09:10:47;8.38;;;1.42;;
68089;SDS011;54880;50.986;6.990;2023-12-28T09:13:16;6.60;;;1.50;;
68089;SDS011;54880;50.986;6.990;2023-12-28T09:15:45;7.03;;;1.50;;
68089;SDS011;54880;50.986;6.990;2023-12-28T09:18:11;6.68;;;1.40;;
68089;SDS011;54880;50.986;6.990;2023-12-28T09:20:36;5.07;;;1.40;;
68089;SDS011;54880;50.986;6.990;2023-12-28T09:23:01;10.80;;;1.87;;
68089;SDS011;54880;50.986;6.990;2023-12-28T09:25:27;7.67;;;1.70;;
68089;SDS011;54880;50.986;6.990;2023-12-28T09:27:52;7.73;;;1.70;;
68089;SDS011;54880;50.986;6.990;2023-12-28T09:30:17;7.37;;;1.40;;
68089;SDS011;54880;50.986;6.990;2023-12-28T09:32:42;7.20;;;1.45;;
68089;SDS011;54880;50.986;6.990;2023-12-28T09:35:08;8.40;;;2.17;;
68089;SDS011;54880;50.986;6.990;2023-12-28T09:37:33;10.18;;;1.63;;
68089;SDS011;54880;50.986;6.990;2023-12-28T09:39:58;5.47;;;1.33;;
68089;SDS011;54880;50.986;6.990;2023-12-28T09:42:25;7.53;;;1.70;;
68089;SDS011;54880;50.986;6.990;2023-12-28T09:44:51;7.63;;;1.30;;
68089;SDS011;54880;50.986;6.990;2023-12-28T09:47:17;11.95;;;1.60;;
68089;SDS011;54880;50.986;6.990;2023-12-28T09:49:42;9.33;;;1.60;;
68089;SDS011;54880;50.986;6.990;2023-12-28T09:52:09;8.27;;;1.95;;
68089;SDS011;54880;50.986;6.990;2023-12-28T09:54:34;6.93;;;1.77;;
68089;SDS011;54880;50.986;6.990;2023-12-28T09:56:59;9.00;;;1.37;;
68089;SDS011;54880;50.986;6.990;2023-12-28T09:59:26;7.13;;;1.70;;
68089;SDS011;54880;50.986;6.990;2023-12-28T10:01:51;10.10;;;1.60;;
68089;SDS011;54880;50.986;6.990;2023-12-28T10:04:18;8.70;;;1.40;;
68089;SDS011;54880;50.986;6.990;2023-12-28T10:06:44;8.57;;;1.63;;
68089;SDS011;54880;50.986;6.990;2023-12-28T10:09:10;6.17;;;1.47;;
68089;SDS011;54880;50.986;6.990;2023-12-28T10:11:36;9.23;;;1.50;;
68089;SDS011;54880;50.986;6.990;2023-12-28T10:14:01;8.13;;;1.40;;
68089;SDS011;54880;50.986;6.990;2023-12-28T10:16:27;8.00;;;1.73;;
68089;SDS011;54880;50.986;6.990;2023-12-28T10:18:52;6.40;;;1.97;;
68089;SDS011;54880;50.986;6.990;2023-12-28T10:21:17;7.07;;;1.60;;
68089;SDS011;54880;50.986;6.990;2023-12-28T10:23:43;6.07;;;1.50;;
68089;SDS011;54880;50.986;6.990;2023-12-28T10:26:08;9.67;;;1.40;;
68089;SDS011;54880;50.986;6.990;2023-12-28T10:28:36;6.33;;;1.50;;
68089;SDS011;54880;50.986;6.990;2023-12-28T10:31:05;8.00;;;1.73;;
68089;SDS011;54880;50.986;6.990;2023-12-28T10:33:34;6.85;;;1.38;;
68089;SDS011;54880;50.986;6.990;2023-12-28T10:35:59;9.13;;;1.67;;
68089;SDS011;54880;50.986;6.990;2023-12-28T10:38:24;6.77;;;1.33;;
68089;SDS011;54880;50.986;6.990;2023-12-28T10:40:50;9.20;;;1.67;;
68089;SDS011;54880;50.986;6.990;2023-12-28T10:43:16;8.20;;;1.50;;
68089;SDS011;54880;50.986;6.990;2023-12-28T10:45:45;8.60;;;1.40;;
68089;SDS011;54880;50.986;6.990;2023-12-28T10:48:11;9.13;;;1.70;;
68089;SDS011;54880;50.986;6.990;2023-12-28T10:50:46;7.82;;;1.48;;
68089;SDS011;54880;50.986;6.990;2023-12-28T10:55:46;10.37;;;2.07;;
68089;SDS011;54880;50.986;6.990;2023-12-28T10:58:24;8.38;;;1.77;;
68089;SDS011;54880;50.986;6.990;2023-12-28T11:00:56;9.00;;;1.60;;
68089;SDS011;54880;50.986;6.990;2023-12-28T11:03:23;7.60;;;1.30;;
68089;SDS011;54880;50.986;6.990;2023-12-28T11:05:51;8.05;;;1.60;;
68089;SDS011;54880;50.986;6.990;2023-12-28T11:08:17;8.73;;;1.40;;
68089;SDS011;54880;50.986;6.990;2023-12-28T11:10:44;7.13;;;1.48;;
68089;SDS011;54880;50.986;6.990;2023-12-28T11:13:09;10.80;;;1.43;;
68089;SDS011;54880;50.986;6.990;2023-12-28T11:15:35;8.13;;;1.98;;
68089;SDS011;54880;50.986;6.990;2023-12-28T11:18:01;7.97;;;1.52;;
68089;SDS011;54880;50.986;6.990;2023-12-28T11:20:26;8.63;;;1.47;;
68089;SDS011;54880;50.986;6.990;2023-12-28T11:22:53;7.10;;;1.45;;
68089;SDS011;54880;50.986;6.990;2023-12-28T11:25:18;9.37;;;1.77;;
68089;SDS011;54880;50.986;6.990;2023-12-28T11:27:44;10.17;;;1.60;;
68089;SDS011;54880;50.986;6.990;2023-12-28T11:30:11;6.78;;;1.65;;
68089;SDS011;54880;50.986;6.990;2023-12-28T11:32:38;13.38;;;1.85;;
68089;SDS011;54880;50.986;6.990;2023-12-28T11:35:06;8.18;;;1.45;;
68089;SDS011;54880;50.986;6.990;2023-12-28T11:37:31;8.02;;;1.42;;
68089;SDS011;54880;50.986;6.990;2023-12-28T11:39:57;6.60;;;1.65;;
68089;SDS011;54880;50.986;6.990;2023-12-28T11:42:25;8.98;;;1.50;;
68089;SDS011;54880;50.986;6.990;2023-12-28T11:44:54;7.87;;;1.40;;
68089;SDS011;54880;50.986;6.990;2023-12-28T11:47:23;12.03;;;1.50;;
68089;SDS011;54880;50.986;6.990;2023-12-28T11:49:49;8.15;;;1.35;;
68089;SDS011;54880;50.986;6.990;2023-12-28T11:54:51;9.50;;;1.50;;
68089;SDS011;54880;50.986;6.990;2023-12-28T11:57:16;6.87;;;1.70;;
68089;SDS011;54880;50.986;6.990;2023-12-28T11:59:42;9.57;;;1.50;;
68089;SDS011;54880;50.986;6.990;2023-12-28T12:02:07;8.80;;;1.50;;
68089;SDS011;54880;50.986;6.990;2023-12-28T12:04:33;6.60;;;1.00;;
68089;SDS011;54880;50.986;6.990;2023-12-28T12:07:01;11.45;;;1.50;;
68089;SDS011;54880;50.986;6.990;2023-12-28T12:09:26;9.73;;;1.80;;
68089;SDS011;54880;50.986;6.990;2023-12-28T12:11:51;8.47;;;1.40;;
68089;SDS011;54880;50.986;6.990;2023-12-28T12:14:17;8.88;;;1.50;;
68089;SDS011;54880;50.986;6.990;2023-12-28T12:16:43;6.57;;;1.20;;
68089;SDS011;54880;50.986;6.990;2023-12-28T12:19:08;10.23;;;1.50;;
68089;SDS011;54880;50.986;6.990;2023-12-28T12:21:34;6.75;;;1.40;;
68089;SDS011;54880;50.986;6.990;2023-12-28T12:24:00;7.23;;;1.40;;
68089;SDS011;54880;50.986;6.990;2023-12-28T12:26:26;7.65;;;1.40;;
68089;SDS011;54880;50.986;6.990;2023-12-28T12:28:51;11.37;;;1.57;;
68089;SDS011;54880;50.986;6.990;2023-12-28T12:31:16;8.50;;;1.63;;
68089;SDS011;54880;50.986;6.990;2023-12-28T12:33:42;8.57;;;1.33;;
68089;SDS011;54880;50.986;6.990;2023-12-28T12:36:07;7.53;;;1.40;;
68089;SDS011;54880;50.986;6.990;2023-12-28T12:38:33;11.63;;;1.55;;
68089;SDS011;54880;50.986;6.990;2023-12-28T12:40:58;9.60;;;1.60;;
68089;SDS011;54880;50.986;6.990;2023-12-28T12:43:24;7.80;;;1.60;;
68089;SDS011;54880;50.986;6.990;2023-12-28T12:45:50;7.07;;;1.33;;
68089;SDS011;54880;50.986;6.990;2023-12-28T12:48:15;9.63;;;1.30;;
68089;SDS011;54880;50.986;6.990;2023-12-28T12:50:41;8.53;;;1.50;;
68089;SDS011;54880;50.986;6.990;2023-12-28T12:53:06;8.07;;;1.50;;
68089;SDS011;54880;50.986;6.990;2023-12-28T12:55:31;7.50;;;1.50;;
68089;SDS011;54880;50.986;6.990;2023-12-28T12:57:57;6.80;;;1.20;;
68089;SDS011;54880;50.986;6.990;2023-12-28T13:00:22;8.13;;;1.27;;
68089;SDS011;54880;50.986;6.990;2023-12-28T13:02:50;9.68;;;1.50;;
68089;SDS011;54880;50.986;6.990;2023-12-28T13:05:18;9.70;;;1.30;;
68089;SDS011;54880;50.986;6.990;2023-12-28T13:07:46;7.47;;;1.30;;
68089;SDS011;54880;50.986;6.990;2023-12-28T13:10:12;7.35;;;1.25;;
68089;SDS011;54880;50.986;6.990;2023-12-28T13:12:37;9.57;;;1.57;;
68089;SDS011;54880;50.986;6.990;2023-12-28T13:15:03;7.77;;;1.50;;
68089;SDS011;54880;50.986;6.990;2023-12-28T13:17:28;9.68;;;1.35;;
68089;SDS011;54880;50.986;6.990;2023-12-28T13:19:54;8.55;;;1.60;;
68089;SDS011;54880;50.986;6.990;2023-12-28T13:22:19;7.97;;;1.60;;
68089;SDS011;54880;50.986;6.990;2023-12-28T13:24:44;5.13;;;1.30;;
68089;SDS011;54880;50.986;6.990;2023-12-28T13:27:09;9.67;;;1.20;;
68089;SDS011;54880;50.986;6.990;2023-12-28T13:29:35;7.73;;;1.70;;
68089;SDS011;54880;50.986;6.990;2023-12-28T13:32:00;7.37;;;1.50;;
68089;SDS011;54880;50.986;6.990;2023-12-28T13:34:26;7.30;;;1.43;;
68089;SDS011;54880;50.986;6.990;2023-12-28T13:36:53;9.65;;;1.50;;
68089;SDS011;54880;50.986;6.990;2023-12-28T13:39:19;5.37;;;1.20;;
68089;SDS011;54880;50.986;6.990;2023-12-28T13:41:44;7.73;;;1.17;;
68089;SDS011;54880;50.986;6.990;2023-12-28T13:44:09;8.33;;;1.30;;
68089;SDS011;54880;50.986;6.990;2023-12-28T13:46:37;7.18;;;1.13;;
68089;SDS011;54880;50.986;6.990;2023-12-28T13:49:02;7.73;;;1.20;;
68089;SDS011;54880;50.986;6.990;2023-12-28T13:51:29;7.63;;;1.35;;
68089;SDS011;54880;50.986;6.990;2023-12-28T13:53:54;8.73;;;1.47;;
68089;SDS011;54880;50.986;6.990;2023-12-28T13:56:20;9.98;;;1.50;;
68089;SDS011;54880;50.986;6.990;2023-12-28T13:58:45;11.23;;;1.42;;
68089;SDS011;54880;50.986;6.990;2023-12-28T14:01:10;6.07;;;1.10;;
68089;SDS011;54880;50.986;6.990;2023-12-28T14:03:35;9.35;;;1.45;;
68089;SDS011;54880;50.986;6.990;2023-12-28T14:06:01;9.37;;;1.70;;
68089;SDS011;54880;50.986;6.990;2023-12-28T14:08:26;9.10;;;1.40;;
68089;SDS011;54880;50.986;6.990;2023-12-28T14:10:51;7.35;;;1.45;;
68089;SDS011;54880;50.986;6.990;2023-12-28T14:13:16;6.95;;;1.30;;
68089;SDS011;54880;50.986;6.990;2023-12-28T14:15:42;7.22;;;1.52;;
68089;SDS011;54880;50.986;6.990;2023-12-28T14:18:07;8.13;;;1.40;;
68089;SDS011;54880;50.986;6.990;2023-12-28T14:20:34;7.95;;;1.70;;
68089;SDS011;54880;50.986;6.990;2023-12-28T14:22:59;9.27;;;1.30;;
68089;SDS011;54880;50.986;6.990;2023-12-28T14:25:25;5.00;;;1.20;;
68089;SDS011;54880;50.986;6.990;2023-12-28T14:27:51;7.97;;;1.80;;
68089;SDS011;54880;50.986;6.990;2023-12-28T14:30:17;11.27;;;1.63;;
68089;SDS011;54880;50.986;6.990;2023-12-28T14:32:42;7.40;;;1.50;;
68089;SDS011;54880;50.986;6.990;2023-12-28T14:35:08;6.63;;;1.10;;
68089;SDS011;54880;50.986;6.990;2023-12-28T14:37:33;8.27;;;1.55;;
68089;SDS011;54880;50.986;6.990;2023-12-28T14:39:59;9.17;;;1.40;;
68089;SDS011;54880;50.986;6.990;2023-12-28T14:42:24;7.90;;;1.40;;
68089;SDS011;54880;50.986;6.990;2023-12-28T14:44:49;6.93;;;1.33;;
68089;SDS011;54880;50.986;6.990;2023-12-28T14:47:16;7.95;;;1.40;;